Metar z pełnej godziny Komunikat METAR ze strony awiacja.imgw.pl Metar G00 EPLL METAR EPLL 162200Z 12003KT 090V150 9999 OVC024 M02/M05 Q1018 R25/29//95 =